X  Zatvori METAR podaci zračne luke     LDPL Pula Airport
Temperatura
7°C Temperatura
3°C Točka rosišta
76% Vlaga



Vjetar
5 KM/S
3 MPS
1 M/S
3 Čvorovi



50°
SI
Trenutna situacija

Vedro Vedro
Tlak zraka 1016.92 (hPa) - 30.03 (inHg)
Vidljivost 6.2 (milje) - 10 (km)
Zračna luka
Kôd zračne luke LDPL

Lokacija: Pula Airport
Udaljenost: 39 (km)

Metar:
LDPL 202230Z 05003KT 010V100 CAVOK 07/03 Q1017

Vrijeme: 21-04-2021 00:30 CEST